createdAt,value
2022-11-16T00:01:10.363Z,54.93
2022-11-16T00:04:14.273Z,46.45
2022-11-16T00:07:18.764Z,74.28
2022-11-16T00:10:22.524Z,75.18
2022-11-16T00:13:25.452Z,79.82
2022-11-16T00:16:29.661Z,65.23
2022-11-16T00:19:33.280Z,69.22
2022-11-16T00:22:36.873Z,55.15
2022-11-16T00:25:40.465Z,57.97
2022-11-16T00:28:44.117Z,68.15
2022-11-16T00:31:48.534Z,72.50
2022-11-16T00:34:51.470Z,71.22
2022-11-16T00:37:54.628Z,95.82
2022-11-16T00:40:57.671Z,109.22
2022-11-16T00:44:01.717Z,110.88
2022-11-16T00:47:05.541Z,81.73
2022-11-16T00:50:09.118Z,59.72
2022-11-16T00:53:19.783Z,37.97
2022-11-16T00:56:23.390Z,32.38
2022-11-16T00:59:26.391Z,33.03
2022-11-16T01:02:33.006Z,34.13
2022-11-16T01:05:36.482Z,26.25
2022-11-16T01:08:40.797Z,24.25
2022-11-16T01:12:03.026Z,29.00
2022-11-16T01:15:10.050Z,48.80
2022-11-16T01:18:13.791Z,40.67
2022-11-16T01:21:18.273Z,50.97
2022-11-16T01:24:22.080Z,59.00
2022-11-16T01:27:26.408Z,58.45
2022-11-16T01:30:30.895Z,62.83
2022-11-16T01:33:43.015Z,64.47
2022-11-16T01:36:55.778Z,74.53
2022-11-16T01:40:02.836Z,92.88
2022-11-16T01:43:20.950Z,91.43
2022-11-16T01:46:26.191Z,76.57
2022-11-16T01:49:35.596Z,64.13
2022-11-16T01:52:45.430Z,76.63
2022-11-16T01:55:50.169Z,45.28
2022-11-16T01:59:00.740Z,37.58
2022-11-16T02:02:06.214Z,44.03
2022-11-16T02:05:14.340Z,47.97
2022-11-16T02:08:47.147Z,64.55
2022-11-16T02:12:44.389Z,83.13
2022-11-16T02:15:55.274Z,98.70
2022-11-16T02:19:44.387Z,74.25
2022-11-16T02:23:11.295Z,53.50
2022-11-16T02:26:27.436Z,46.95
2022-11-16T02:29:44.966Z,38.53
2022-11-16T02:32:58.554Z,46.17
2022-11-16T02:36:05.858Z,49.13
2022-11-16T02:39:15.730Z,48.77
2022-11-16T02:42:27.115Z,40.20
2022-11-16T02:45:36.533Z,39.65
2022-11-16T02:48:46.865Z,44.13
2022-11-16T02:51:52.933Z,45.60
2022-11-16T02:54:57.145Z,39.60
2022-11-16T02:58:07.148Z,45.17
2022-11-16T03:01:30.656Z,44.53
2022-11-16T03:04:45.503Z,52.03
2022-11-16T03:07:56.363Z,48.80
2022-11-16T03:11:26.256Z,60.60
2022-11-16T03:14:45.896Z,53.20
2022-11-16T03:17:51.268Z,48.67
2022-11-16T03:21:21.161Z,54.60
2022-11-16T03:24:25.089Z,63.72
2022-11-16T03:27:51.752Z,57.60
2022-11-16T03:31:06.571Z,52.35
2022-11-16T03:34:17.135Z,58.30
2022-11-16T03:37:21.041Z,52.70
2022-11-16T03:40:27.798Z,67.45
2022-11-16T03:43:31.994Z,67.33
2022-11-16T03:46:36.270Z,73.13
2022-11-16T03:49:45.490Z,70.00
2022-11-16T03:52:50.977Z,56.08
2022-11-16T03:55:54.304Z,75.80
2022-11-16T03:58:57.662Z,73.10
2022-11-16T04:02:00.726Z,104.65
2022-11-16T04:05:23.090Z,111.90
2022-11-16T04:08:45.140Z,112.45
2022-11-16T04:12:09.674Z,119.90
2022-11-16T04:15:32.396Z,107.00
2022-11-16T04:18:55.837Z,115.18
2022-11-16T04:22:24.950Z,117.85
2022-11-16T04:25:35.084Z,112.97
2022-11-16T04:28:40.172Z,125.15
2022-11-16T04:32:01.517Z,111.37
2022-11-16T04:35:23.397Z,118.25
2022-11-16T04:38:26.867Z,112.57
2022-11-16T04:41:50.815Z,111.47
2022-11-16T04:45:12.595Z,102.45
2022-11-16T04:48:22.902Z,103.80
2022-11-16T04:51:29.339Z,103.30
2022-11-16T04:54:33.659Z,92.32
2022-11-16T04:57:38.445Z,95.38
2022-11-16T05:00:42.404Z,90.70
2022-11-16T05:03:47.594Z,96.87
2022-11-16T05:06:51.458Z,103.45
2022-11-16T05:09:55.887Z,95.40
2022-11-16T05:12:59.932Z,105.28
2022-11-16T05:16:04.367Z,113.53
2022-11-16T05:19:26.221Z,116.73
2022-11-16T05:22:31.214Z,121.63
2022-11-16T05:25:37.305Z,105.53
2022-11-16T05:28:45.334Z,99.93
2022-11-16T05:31:49.244Z,102.28
2022-11-16T05:34:54.512Z,112.20
2022-11-16T05:38:00.762Z,107.80
2022-11-16T05:41:04.505Z,106.60
2022-11-16T05:44:08.563Z,112.50
2022-11-16T05:47:12.594Z,104.35
2022-11-16T05:50:16.613Z,101.37
2022-11-16T05:53:22.618Z,94.97
2022-11-16T05:56:27.030Z,96.68
2022-11-16T05:59:31.071Z,89.57
2022-11-16T06:02:37.219Z,88.35
2022-11-16T06:05:40.901Z,83.47
2022-11-16T06:08:48.734Z,81.97
2022-11-16T06:11:57.149Z,85.97
2022-11-16T06:15:00.789Z,85.03
2022-11-16T06:18:04.920Z,75.60
2022-11-16T06:21:09.531Z,85.77
2022-11-16T06:24:13.164Z,86.30
2022-11-16T06:27:18.425Z,102.00
2022-11-16T06:30:22.071Z,84.85
2022-11-16T06:33:29.596Z,68.65
2022-11-16T06:36:35.880Z,72.07
2022-11-16T06:39:40.589Z,78.40
2022-11-16T06:42:44.893Z,65.25
2022-11-16T06:45:51.986Z,63.25
2022-11-16T06:48:57.084Z,73.20
2022-11-16T06:52:01.321Z,76.70
2022-11-16T06:55:05.567Z,67.22
2022-11-16T06:58:12.153Z,75.68
2022-11-16T07:01:17.370Z,75.82
2022-11-16T07:04:23.813Z,75.50
2022-11-16T07:07:32.566Z,74.60
2022-11-16T07:10:39.173Z,62.55
2022-11-16T07:13:43.692Z,75.63
2022-11-16T07:16:47.635Z,57.63
2022-11-16T07:19:51.581Z,62.15
2022-11-16T07:22:56.176Z,53.47
2022-11-16T07:26:07.139Z,84.95
2022-11-16T07:29:27.896Z,69.97
2022-11-16T07:33:04.829Z,70.80
2022-11-16T07:36:27.396Z,63.00
2022-11-16T07:39:31.885Z,78.43
2022-11-16T07:42:36.069Z,98.25
2022-11-16T07:49:40.057Z,100.10
2022-11-16T07:52:48.949Z,237.30
2022-11-16T07:55:57.660Z,243.87
2022-11-16T07:59:02.923Z,97.68
2022-11-16T08:02:11.609Z,82.43
2022-11-16T08:05:17.112Z,82.25
2022-11-16T08:08:20.919Z,77.32
2022-11-16T08:11:25.532Z,83.83
2022-11-16T08:14:29.426Z,98.63
2022-11-16T08:17:32.770Z,109.13
2022-11-16T08:20:38.327Z,129.10
2022-11-16T08:23:42.664Z,138.77
2022-11-16T08:26:46.718Z,130.17
2022-11-16T08:29:51.234Z,138.35
2022-11-16T08:32:54.663Z,118.15
2022-11-16T08:35:57.748Z,95.30
2022-11-16T08:39:01.840Z,70.75
2022-11-16T08:42:07.556Z,66.60
2022-11-16T08:45:12.122Z,60.95
2022-11-16T08:48:17.305Z,62.53
2022-11-16T08:51:21.329Z,60.78
2022-11-16T08:54:32.121Z,70.35
2022-11-16T08:57:36.173Z,59.97
2022-11-16T09:00:44.088Z,62.95
2022-11-16T09:03:48.325Z,59.33
2022-11-16T09:06:53.485Z,56.53
2022-11-16T09:09:57.739Z,74.72
2022-11-16T09:13:01.720Z,87.63
2022-11-16T09:16:06.523Z,71.63
2022-11-16T09:19:11.253Z,73.05
2022-11-16T09:22:15.113Z,71.70
2022-11-16T09:25:19.681Z,81.60
2022-11-16T09:28:24.497Z,90.67
2022-11-16T09:31:29.474Z,93.20
2022-11-16T09:34:35.832Z,67.60
2022-11-16T09:37:39.191Z,50.40
2022-11-16T09:40:46.870Z,52.40
2022-11-16T09:44:10.301Z,48.40
2022-11-16T09:47:27.806Z,78.93
2022-11-16T09:50:57.659Z,60.03
2022-11-16T09:54:07.677Z,50.65
2022-11-16T09:57:16.181Z,52.40
2022-11-16T10:00:26.806Z,54.50
2022-11-16T10:03:36.871Z,97.18
2022-11-16T10:07:02.177Z,96.72
2022-11-16T16:24:56.038Z,51.30
2022-11-16T16:27:59.890Z,43.65
2022-11-16T16:31:03.726Z,41.75
2022-11-16T16:34:13.287Z,41.97
2022-11-16T16:37:19.488Z,45.23
2022-11-16T16:40:24.257Z,50.75
2022-11-16T16:43:38.721Z,47.50
2022-11-16T16:46:42.980Z,43.05
2022-11-16T16:49:48.204Z,41.10
2022-11-16T16:52:52.279Z,35.33
2022-11-16T16:55:56.162Z,33.55
2022-11-16T16:59:01.038Z,39.38
2022-11-16T17:02:04.803Z,30.85
2022-11-16T17:05:08.889Z,39.42
2022-11-16T17:08:12.777Z,40.33
2022-11-16T17:11:18.452Z,35.38
2022-11-16T17:14:25.080Z,45.00
2022-11-16T17:17:29.976Z,33.70
2022-11-16T17:20:34.402Z,28.80
2022-11-16T17:23:38.951Z,41.87
2022-11-16T17:26:43.241Z,30.92
2022-11-16T17:29:46.940Z,32.97
2022-11-16T17:32:51.455Z,28.33
2022-11-16T17:35:59.412Z,31.40
2022-11-16T17:39:03.336Z,31.70
2022-11-16T17:42:12.586Z,31.60
2022-11-16T17:45:16.354Z,33.65
2022-11-16T17:48:20.407Z,31.55
2022-11-16T17:51:27.635Z,28.88
2022-11-16T17:54:31.460Z,27.57
2022-11-16T17:57:35.224Z,26.25
2022-11-16T18:00:39.384Z,25.05
2022-11-16T18:03:43.295Z,26.52
2022-11-16T18:06:47.596Z,23.17
2022-11-16T18:09:51.359Z,26.50
2022-11-16T18:12:55.606Z,17.20
2022-11-16T18:16:13.123Z,25.75
2022-11-16T18:19:20.121Z,25.98
2022-11-16T18:22:23.846Z,27.80
2022-11-16T18:25:28.353Z,24.57
2022-11-16T18:28:32.810Z,18.60
2022-11-16T18:31:36.538Z,25.13
2022-11-16T18:34:39.886Z,23.10
2022-11-16T18:37:43.811Z,23.48
2022-11-16T18:40:46.952Z,19.00
2022-11-16T18:43:58.427Z,16.88
2022-11-16T18:47:03.131Z,16.05
2022-11-16T18:50:18.042Z,18.58
2022-11-16T18:53:22.846Z,15.60
2022-11-16T18:56:27.444Z,17.80
2022-11-16T18:59:30.867Z,13.25
2022-11-16T19:02:33.794Z,13.35
2022-11-16T19:05:37.871Z,12.95
2022-11-16T19:08:41.997Z,14.93
2022-11-16T19:11:45.150Z,14.20
2022-11-16T19:14:48.141Z,14.82
2022-11-16T19:18:14.590Z,10.70
2022-11-16T19:21:16.636Z,14.85
2022-11-16T19:24:20.242Z,13.75
2022-11-16T19:27:23.080Z,11.37
2022-11-16T19:30:27.154Z,12.25
2022-11-16T19:33:30.915Z,10.45
2022-11-16T19:36:36.889Z,8.65
2022-11-16T19:39:40.623Z,9.27
2022-11-16T19:42:44.588Z,8.57
2022-11-16T19:45:47.491Z,13.27
2022-11-16T19:48:52.168Z,7.88
2022-11-16T19:51:55.853Z,7.95
2022-11-16T19:54:59.947Z,7.95
2022-11-16T19:58:03.735Z,9.00
2022-11-16T20:01:08.627Z,12.20
2022-11-16T20:04:11.723Z,16.25
2022-11-16T20:07:18.886Z,8.93
2022-11-16T20:10:22.286Z,9.88
2022-11-16T20:13:25.660Z,10.07
2022-11-16T20:16:38.155Z,9.77
2022-11-16T20:19:42.600Z,9.13
2022-11-16T20:22:49.314Z,12.00
2022-11-16T20:25:53.472Z,11.35
2022-11-16T20:28:57.655Z,13.73
2022-11-16T20:32:01.593Z,11.35
2022-11-16T20:35:04.781Z,16.73
2022-11-16T20:38:08.897Z,14.45
2022-11-16T20:41:14.521Z,14.15
2022-11-16T20:44:22.767Z,16.70
2022-11-16T20:47:25.976Z,12.18
2022-11-16T20:50:30.058Z,11.27
2022-11-16T20:53:34.002Z,13.75
2022-11-16T20:56:38.142Z,21.95
2022-11-16T20:59:41.324Z,13.10
2022-11-16T21:02:45.385Z,12.30
2022-11-16T21:05:52.689Z,16.85
2022-11-16T21:08:56.658Z,16.60
2022-11-16T21:12:18.661Z,15.63
2022-11-16T21:15:22.009Z,18.60
2022-11-16T21:18:30.554Z,19.05
2022-11-16T21:21:35.215Z,15.18
2022-11-16T21:24:38.202Z,13.07
2022-11-16T21:27:42.084Z,15.38
2022-11-16T21:30:58.851Z,19.03
2022-11-16T21:34:02.708Z,17.70
2022-11-16T21:37:05.839Z,17.88
2022-11-16T21:40:09.471Z,23.63
2022-11-16T21:43:15.530Z,15.30
2022-11-16T21:46:21.153Z,16.80
2022-11-16T21:49:25.075Z,16.80
2022-11-16T21:52:29.813Z,24.23
2022-11-16T21:55:33.750Z,25.88
2022-11-16T21:58:37.100Z,23.13
2022-11-16T22:01:59.815Z,24.63
2022-11-16T22:05:22.733Z,22.15
2022-11-16T22:08:25.795Z,18.17
2022-11-16T22:11:29.795Z,18.92
2022-11-16T22:14:32.702Z,22.60
2022-11-16T22:17:36.706Z,15.67
2022-11-16T22:20:40.738Z,14.38
2022-11-16T22:23:44.715Z,21.75
2022-11-16T22:26:48.905Z,18.15
2022-11-16T22:29:53.049Z,13.48
2022-11-16T22:32:56.064Z,13.23
2022-11-16T22:36:00.139Z,14.32
2022-11-16T22:39:03.544Z,19.95
2022-11-16T22:42:06.775Z,16.33
2022-11-16T22:45:10.181Z,20.50
2022-11-16T22:48:14.197Z,19.67
2022-11-16T22:51:29.217Z,19.38
2022-11-16T22:54:35.213Z,17.35
2022-11-16T22:57:39.175Z,18.50
2022-11-16T23:00:42.856Z,22.63
2022-11-16T23:03:46.997Z,14.93
2022-11-16T23:06:51.094Z,19.73
2022-11-16T23:09:55.287Z,18.98
2022-11-16T23:13:17.141Z,16.35
2022-11-16T23:16:21.392Z,14.38
2022-11-16T23:19:44.007Z,8.13
2022-11-16T23:23:06.583Z,15.45
2022-11-16T23:26:41.767Z,10.20
2022-11-16T23:29:46.244Z,19.48
2022-11-16T23:32:50.638Z,8.95
2022-11-16T23:35:54.993Z,12.57
2022-11-16T23:38:58.238Z,16.23
2022-11-16T23:42:20.698Z,19.90
2022-11-16T23:45:24.513Z,26.15
2022-11-16T23:48:28.337Z,15.23
2022-11-16T23:51:32.130Z,19.57
2022-11-16T23:54:36.006Z,20.70
2022-11-16T23:57:39.358Z,17.83
